Time;durP1;ratioP1;P1;durP2;ratioP2;P2;SDS_P1;SDS_P2;PMS_P1;PMS_P2;Temp;Humidity;BMP_temperature;BMP_pressure;BME280_temperature;BME280_humidity;BME280_pressure;Samples;Min_cycle;Max_cycle;Signal;HPM_P1;HPM_P2
2023/10/26 00:00:28;;;;;;;0.40;0.40;;;13.50;59.30;;;;;;20284;6928;118812;-73
2023/10/26 00:02:53;;;;;;;1.85;0.75;;;13.30;60.00;;;;;;20081;6928;354408;-73
2023/10/26 00:05:19;;;;;;;1.10;0.60;;;13.40;59.10;;;;;;20321;6926;120668;-73
2023/10/26 00:07:45;;;;;;;1.48;0.88;;;13.40;59.30;;;;;;20105;6928;310630;-73
2023/10/26 00:10:10;;;;;;;1.10;0.50;;;13.60;58.60;;;;;;20330;6928;118095;-73
2023/10/26 00:12:36;;;;;;;1.00;0.67;;;13.50;58.90;;;;;;20329;6928;117654;-73
2023/10/26 00:15:01;;;;;;;0.87;0.70;;;13.30;59.30;;;;;;20333;6928;116941;-74
2023/10/26 00:17:27;;;;;;;3.37;0.77;;;13.20;60.00;;;;;;20395;6928;117702;-73
2023/10/26 00:19:53;;;;;;;0.60;0.60;;;13.10;60.60;;;;;;20163;6928;349317;-73
2023/10/26 00:22:18;;;;;;;1.83;0.90;;;13.20;59.80;;;;;;20182;6928;287278;-73
2023/10/26 00:24:44;;;;;;;0.95;0.60;;;13.60;58.60;;;;;;20171;6928;311854;-73
2023/10/26 00:27:10;;;;;;;1.70;0.75;;;14.00;57.10;;;;;;20182;6928;311890;-73
2023/10/26 00:29:36;;;;;;;1.60;0.60;;;14.00;57.10;;;;;;20390;6928;122559;-77
2023/10/26 00:32:03;;;;;;;0.98;0.65;;;13.90;57.50;;;;;;20226;6931;118234;-74
2023/10/26 00:34:27;;;;;;;1.90;0.90;;;13.60;58.50;;;;;;20144;6943;312067;-73
2023/10/26 00:36:52;;;;;;;0.65;0.47;;;13.60;58.10;;;;;;20315;6943;118023;-73
2023/10/26 00:39:18;;;;;;;1.25;0.50;;;13.50;58.50;;;;;;20373;6931;117809;-73
2023/10/26 00:41:44;;;;;;;2.93;0.70;;;13.30;59.10;;;;;;20385;6923;117711;-73
2023/10/26 00:44:09;;;;;;;1.07;0.70;;;13.10;59.80;;;;;;20202;6923;309763;-73
2023/10/26 00:46:35;;;;;;;1.20;0.70;;;13.20;59.00;;;;;;20401;6923;117760;-74
2023/10/26 00:49:00;;;;;;;1.48;0.77;;;13.20;59.30;;;;;;20185;6923;310222;-76
2023/10/26 00:51:26;;;;;;;1.73;0.75;;;13.40;58.70;;;;;;20180;6923;313123;-74
2023/10/26 00:53:51;;;;;;;0.68;0.60;;;13.60;57.70;;;;;;20160;6923;310149;-74
2023/10/26 00:56:19;;;;;;;1.50;0.57;;;13.80;57.10;;;;;;20395;6923;118305;-73
2023/10/26 00:58:43;;;;;;;1.03;0.60;;;13.70;57.50;;;;;;20373;6923;117993;-74
2023/10/26 01:01:08;;;;;;;0.73;0.68;;;13.40;58.30;;;;;;20192;6923;316233;-73
2023/10/26 01:03:34;;;;;;;1.75;0.80;;;13.40;57.90;;;;;;20188;6923;319131;-73
2023/10/26 01:05:59;;;;;;;0.85;0.60;;;13.60;57.40;;;;;;20147;6931;309960;-73
2023/10/26 01:08:25;;;;;;;0.90;0.90;;;13.80;56.90;;;;;;20440;6923;121606;-73
2023/10/26 01:10:51;;;;;;;3.60;0.90;;;13.60;57.30;;;;;;20380;6923;117663;-73
2023/10/26 01:13:16;;;;;;;1.20;0.50;;;13.30;58.10;;;;;;20407;6923;117587;-73
2023/10/26 01:15:42;;;;;;;1.50;0.70;;;13.00;58.90;;;;;;20174;6922;309820;-73
2023/10/26 01:18:07;;;;;;;1.90;0.70;;;13.10;59.00;;;;;;20205;6922;295993;-73
2023/10/26 01:20:33;;;;;;;0.55;0.55;;;13.40;58.30;;;;;;20398;6931;117741;-76
2023/10/26 01:22:59;;;;;;;2.53;0.60;;;13.30;58.50;;;;;;20411;6923;122022;-73
2023/10/26 01:25:24;;;;;;;0.63;0.50;;;13.00;59.10;;;;;;20408;6923;117984;-73
2023/10/26 01:27:50;;;;;;;0.80;0.70;;;12.70;59.70;;;;;;20179;6923;340107;-74
2023/10/26 01:30:16;;;;;;;0.77;0.62;;;12.80;59.40;;;;;;20200;6923;281497;-73
2023/10/26 01:32:41;;;;;;;1.33;0.70;;;13.10;58.80;;;;;;20401;6923;118134;-73
2023/10/26 01:35:06;;;;;;;0.80;0.70;;;13.00;58.90;;;;;;20188;6923;311509;-73
2023/10/26 01:37:32;;;;;;;2.40;0.60;;;13.00;58.30;;;;;;20402;6923;119935;-73
2023/10/26 01:39:58;;;;;;;0.67;0.60;;;12.90;58.70;;;;;;20385;6923;123513;-74
2023/10/26 01:42:23;;;;;;;1.27;0.50;;;12.70;59.60;;;;;;20415;6923;118086;-73
2023/10/26 01:44:49;;;;;;;0.97;0.50;;;12.40;60.10;;;;;;20396;6923;117856;-73
2023/10/26 01:47:17;;;;;;;0.47;0.47;;;12.20;60.80;;;;;;20403;6923;117595;-76
2023/10/26 01:49:44;;;;;;;1.07;0.40;;;12.10;61.40;;;;;;20384;6923;121922;-74
2023/10/26 01:52:08;;;;;;;1.60;0.77;;;12.00;62.50;;;;;;20188;6923;283378;-74
2023/10/26 01:54:34;;;;;;;1.90;0.85;;;12.20;61.30;;;;;;20191;6923;310796;-74
2023/10/26 01:56:59;;;;;;;0.77;0.70;;;12.60;60.10;;;;;;20401;6923;117851;-76
2023/10/26 01:59:25;;;;;;;1.00;0.70;;;12.60;60.00;;;;;;20187;6923;310111;-73
2023/10/26 02:01:51;;;;;;;1.87;0.93;;;12.70;59.40;;;;;;20382;6923;119325;-73
2023/10/26 02:04:16;;;;;;;1.43;0.90;;;12.60;59.60;;;;;;20191;6923;312377;-73
2023/10/26 02:06:42;;;;;;;2.17;0.40;;;12.70;59.10;;;;;;20401;6923;117824;-73
2023/10/26 02:09:07;;;;;;;1.40;0.68;;;12.60;59.40;;;;;;20180;6923;348455;-73
2023/10/26 02:11:34;;;;;;;1.10;0.70;;;12.60;59.30;;;;;;20398;6923;117603;-72
2023/10/26 02:13:59;;;;;;;2.00;0.77;;;12.60;59.30;;;;;;20175;6923;310559;-73
2023/10/26 02:16:25;;;;;;;1.70;0.50;;;12.70;59.00;;;;;;20403;6923;117621;-75
2023/10/26 02:18:50;;;;;;;0.63;0.63;;;12.60;59.20;;;;;;20407;6923;117589;-73
2023/10/26 02:21:16;;;;;;;0.93;0.60;;;12.40;59.90;;;;;;20187;6923;311778;-73
2023/10/26 02:23:42;;;;;;;0.70;0.60;;;12.70;58.30;;;;;;20171;6923;304700;-73
2023/10/26 02:26:08;;;;;;;0.80;0.80;;;12.70;58.30;;;;;;20394;6923;118587;-73
2023/10/26 02:28:33;;;;;;;1.12;0.70;;;12.70;58.60;;;;;;20195;6922;281907;-73
2023/10/26 02:30:59;;;;;;;1.30;0.60;;;12.70;58.10;;;;;;20190;6923;310418;-73
2023/10/26 02:33:24;;;;;;;0.60;0.60;;;12.90;57.40;;;;;;20398;6923;117856;-73
2023/10/26 02:35:50;;;;;;;1.90;0.40;;;12.80;57.80;;;;;;20385;6923;144646;-73
2023/10/26 02:38:16;;;;;;;1.17;0.80;;;12.50;58.60;;;;;;20172;6931;341044;-73
2023/10/26 02:40:42;;;;;;;0.60;0.60;;;12.40;58.50;;;;;;20392;6923;118131;-73
2023/10/26 02:43:08;;;;;;;0.60;0.60;;;12.40;58.50;;;;;;20178;6923;318209;-73
2023/10/26 02:45:33;;;;;;;0.67;0.60;;;12.60;57.90;;;;;;20407;6923;117657;-73
2023/10/26 02:47:59;;;;;;;0.73;0.43;;;12.50;58.20;;;;;;20379;6923;117904;-73
2023/10/26 02:50:24;;;;;;;0.82;0.50;;;12.20;59.00;;;;;;20174;6923;340207;-73
2023/10/26 02:52:51;;;;;;;0.98;0.40;;;12.30;58.40;;;;;;20363;6931;117657;-73
2023/10/26 02:55:16;;;;;;;0.60;0.60;;;12.30;58.40;;;;;;20367;6931;118078;-73
2023/10/26 02:57:42;;;;;;;1.43;0.50;;;12.10;59.00;;;;;;20380;6923;118553;-73
2023/10/26 03:00:07;;;;;;;0.67;0.47;;;11.90;59.60;;;;;;20398;6923;117758;-74
2023/10/26 03:02:33;;;;;;;2.10;0.60;;;11.80;60.20;;;;;;20188;6923;339163;-73
2023/10/26 03:04:59;;;;;;;1.77;0.70;;;12.00;59.00;;;;;;20396;6923;117505;-73
2023/10/26 03:07:24;;;;;;;1.12;0.80;;;12.10;59.10;;;;;;20366;6931;117842;-73
2023/10/26 03:09:50;;;;;;;2.00;0.80;;;12.00;59.70;;;;;;20382;6923;118109;-73
2023/10/26 03:12:16;;;;;;;0.70;0.70;;;11.70;60.60;;;;;;20398;6923;117968;-73
2023/10/26 03:14:42;;;;;;;1.27;0.90;;;11.70;60.60;;;;;;20189;6923;310713;-73
2023/10/26 03:17:07;;;;;;;2.27;0.70;;;11.90;59.70;;;;;;20400;6923;120713;-73
2023/10/26 03:19:33;;;;;;;1.00;0.70;;;12.00;59.80;;;;;;20225;6923;346913;-73
2023/10/26 03:21:58;;;;;;;1.10;1.00;;;12.20;59.00;;;;;;20375;6923;121545;-73
2023/10/26 03:24:24;;;;;;;1.10;0.82;;;12.20;59.10;;;;;;20185;6923;348859;-73
2023/10/26 03:26:50;;;;;;;0.87;0.80;;;12.40;58.60;;;;;;20410;6923;117651;-73
2023/10/26 03:29:15;;;;;;;0.83;0.77;;;12.40;58.80;;;;;;20404;6923;118425;-73
2023/10/26 03:31:41;;;;;;;1.20;0.77;;;12.20;59.30;;;;;;20177;6923;335207;-73
2023/10/26 03:34:07;;;;;;;1.37;0.90;;;12.30;58.70;;;;;;20378;6931;117871;-73
2023/10/26 03:36:33;;;;;;;0.90;0.90;;;12.30;58.80;;;;;;20385;6928;121642;-74
2023/10/26 03:38:58;;;;;;;1.80;0.95;;;12.10;59.30;;;;;;20184;6926;281377;-73
2023/10/26 03:41:24;;;;;;;0.80;0.80;;;12.30;58.60;;;;;;20393;6927;117486;-73
2023/10/26 03:43:50;;;;;;;1.00;0.80;;;12.30;58.80;;;;;;20165;6928;339549;-73
2023/10/26 03:46:15;;;;;;;1.37;0.93;;;12.40;58.00;;;;;;20392;6928;117962;-73
2023/10/26 03:48:40;;;;;;;1.13;1.03;;;12.40;59.00;;;;;;20178;6928;341726;-75
2023/10/26 03:51:06;;;;;;;1.02;0.88;;;12.50;57.80;;;;;;20188;6928;289687;-73
2023/10/26 03:53:32;;;;;;;1.48;1.00;;;12.70;57.20;;;;;;20181;6928;311804;-73
2023/10/26 03:55:57;;;;;;;0.85;0.62;;;12.90;56.50;;;;;;20386;6928;117749;-73
2023/10/26 03:58:23;;;;;;;0.63;0.63;;;12.80;57.00;;;;;;20396;6928;118280;-73
2023/10/26 04:00:48;;;;;;;0.88;0.88;;;12.50;57.80;;;;;;20404;6928;125592;-73
2023/10/26 04:03:14;;;;;;;0.98;0.88;;;12.30;58.70;;;;;;20180;6928;340374;-73
2023/10/26 04:05:40;;;;;;;0.95;0.90;;;12.40;58.10;;;;;;20369;6928;122349;-73
2023/10/26 04:08:07;;;;;;;2.30;1.00;;;12.40;58.30;;;;;;20184;6928;318638;-73
2023/10/26 04:10:31;;;;;;;1.80;1.00;;;12.60;57.90;;;;;;20137;6943;291164;-73
2023/10/26 04:12:56;;;;;;;0.93;0.90;;;12.80;57.10;;;;;;20398;6928;117835;-73
2023/10/26 04:15:23;;;;;;;2.27;1.10;;;12.80;57.50;;;;;;20131;6943;320085;-74
2023/10/26 04:17:50;;;;;;;1.83;0.93;;;12.80;57.10;;;;;;20372;6928;117817;-74
2023/10/26 04:20:14;;;;;;;0.80;0.80;;;12.70;57.50;;;;;;20386;6928;117977;-74
2023/10/26 04:22:40;;;;;;;2.60;0.80;;;12.50;58.20;;;;;;20401;6928;122817;-73
2023/10/26 04:25:06;;;;;;;1.00;1.00;;;12.30;58.90;;;;;;20352;6943;117798;-74
2023/10/26 04:27:34;;;;;;;1.43;0.70;;;12.20;59.50;;;;;;20388;6928;118196;-75
2023/10/26 04:30:01;;;;;;;1.40;0.80;;;12.00;60.00;;;;;;20164;6928;303212;-74
2023/10/26 04:32:26;;;;;;;0.90;0.90;;;12.30;59.60;;;;;;20135;6943;311570;-73
2023/10/26 04:34:52;;;;;;;1.23;0.80;;;12.60;59.10;;;;;;20384;6928;117757;-74
2023/10/26 04:37:18;;;;;;;2.53;1.00;;;12.60;59.10;;;;;;20123;6943;319810;-74
2023/10/26 04:39:43;;;;;;;2.42;1.40;;;12.70;58.30;;;;;;20175;6928;311195;-76
2023/10/26 04:42:12;;;;;;;1.60;1.50;;;13.00;57.20;;;;;;20182;6928;311233;-72
2023/10/26 04:44:38;;;;;;;0.90;0.90;;;13.10;56.70;;;;;;20385;6928;118496;-74
2023/10/26 04:47:03;;;;;;;0.85;0.85;;;13.00;57.20;;;;;;20384;6928;115709;-75
2023/10/26 04:49:29;;;;;;;0.95;0.95;;;12.70;57.90;;;;;;20173;6928;340550;-77
2023/10/26 04:51:56;;;;;;;1.20;0.73;;;12.70;57.50;;;;;;20328;6941;118793;-79
2023/10/26 04:54:24;;;;;;;1.83;0.50;;;12.70;57.90;;;;;;20374;6928;118099;-76
2023/10/26 04:56:48;;;;;;;1.60;0.90;;;12.50;58.70;;;;;;20134;6941;340272;-76
2023/10/26 04:59:14;;;;;;;0.80;0.80;;;12.60;58.10;;;;;;20342;6943;118512;-76
2023/10/26 05:01:39;;;;;;;1.60;0.70;;;12.60;58.30;;;;;;20379;6928;118371;-76
2023/10/26 05:04:05;;;;;;;1.30;0.63;;;12.40;58.90;;;;;;20387;6928;119118;-76
2023/10/26 05:06:31;;;;;;;1.87;0.90;;;12.20;59.50;;;;;;20164;6928;341225;-76
2023/10/26 05:08:57;;;;;;;2.05;0.70;;;12.40;59.20;;;;;;20385;6928;117991;-77
2023/10/26 05:11:23;;;;;;;0.80;0.80;;;12.50;59.30;;;;;;20383;6928;117648;-75
2023/10/26 05:13:52;;;;;;;0.80;0.80;;;12.40;59.90;;;;;;20164;6928;319880;-75
2023/10/26 05:16:14;;;;;;;2.07;0.97;;;12.50;58.90;;;;;;20157;6928;281003;-74
2023/10/26 05:18:39;;;;;;;1.92;0.70;;;12.90;58.30;;;;;;20176;6928;343052;-76
2023/10/26 05:21:05;;;;;;;2.80;0.80;;;13.20;57.50;;;;;;20397;6928;121884;-76
2023/10/26 05:23:31;;;;;;;1.50;0.80;;;13.20;57.80;;;;;;20193;6928;318054;-79
2023/10/26 05:25:56;;;;;;;1.45;1.00;;;13.20;57.10;;;;;;20176;6928;304648;-80
2023/10/26 05:28:25;;;;;;;0.83;0.83;;;13.40;56.60;;;;;;20401;6928;118150;-80
2023/10/26 05:30:50;;;;;;;1.53;1.03;;;13.30;57.10;;;;;;20186;6928;289152;-80
2023/10/26 05:33:18;;;;;;;2.35;0.93;;;13.40;57.10;;;;;;20193;6928;334684;-80
2023/10/26 05:35:44;;;;;;;2.23;0.97;;;13.50;56.90;;;;;;20386;6928;124171;-82
2023/10/26 05:38:09;;;;;;;2.17;0.90;;;13.40;57.30;;;;;;20196;6928;290086;-80
2023/10/26 05:40:35;;;;;;;1.00;0.93;;;13.30;57.80;;;;;;20394;6928;118153;-80
2023/10/26 05:43:01;;;;;;;1.90;1.07;;;13.30;57.80;;;;;;20391;6928;117545;-81
2023/10/26 05:45:27;;;;;;;1.10;1.00;;;13.10;58.60;;;;;;20187;6928;311799;-81
2023/10/26 05:47:55;;;;;;;1.03;0.87;;;13.10;58.60;;;;;;20377;6928;118107;-80
2023/10/26 05:50:22;;;;;;;1.13;1.00;;;13.10;58.80;;;;;;20199;6928;282189;-79
2023/10/26 05:52:47;;;;;;;1.03;0.97;;;13.20;58.90;;;;;;20183;6928;327542;-78
2023/10/26 05:55:14;;;;;;;2.37;1.10;;;13.40;58.30;;;;;;20184;6928;311831;-79
2023/10/26 05:57:40;;;;;;;2.70;1.27;;;13.70;57.80;;;;;;20370;6928;118015;-79
2023/10/26 06:00:06;;;;;;;1.23;1.10;;;13.50;58.00;;;;;;20193;6928;282056;-79
2023/10/26 06:02:32;;;;;;;1.58;1.48;;;13.50;58.00;;;;;;20179;6926;310400;-80
2023/10/26 06:05:00;;;;;;;4.20;1.20;;;13.60;59.00;;;;;;20399;6927;121538;-80
2023/10/26 06:07:24;;;;;;;1.77;1.40;;;13.60;58.90;;;;;;20396;6928;117608;-80
2023/10/26 06:09:50;;;;;;;1.77;1.42;;;13.30;59.50;;;;;;20172;6928;282163;-80
2023/10/26 06:12:16;;;;;;;1.60;1.30;;;13.40;59.50;;;;;;20406;6928;119008;-80
2023/10/26 06:14:41;;;;;;;1.50;1.40;;;13.30;59.60;;;;;;20188;6928;314517;-80
2023/10/26 06:17:08;;;;;;;3.47;3.17;;;13.40;59.30;;;;;;20190;6928;280682;-79
2023/10/26 06:19:35;;;;;;;19.33;15.17;;;13.50;59.00;;;;;;20403;6928;117843;-86
2023/10/26 06:22:00;;;;;;;23.77;17.40;;;13.50;58.50;;;;;;20373;6928;119579;-80
2023/10/26 06:24:26;;;;;;;17.70;15.90;;;13.30;59.30;;;;;;20214;6928;285988;-79
2023/10/26 06:26:51;;;;;;;11.33;10.13;;;13.30;59.60;;;;;;20426;6928;118408;-79
2023/10/26 06:29:17;;;;;;;4.80;4.40;;;13.30;60.00;;;;;;20400;6928;118495;-80
2023/10/26 06:31:42;;;;;;;3.62;2.80;;;13.10;60.60;;;;;;20159;6928;311140;-80
2023/10/26 06:34:08;;;;;;;2.05;1.62;;;13.20;60.60;;;;;;20193;6928;297375;-80
2023/10/26 06:36:34;;;;;;;1.80;1.70;;;13.50;60.40;;;;;;20404;6928;117139;-80
2023/10/26 06:39:02;;;;;;;2.90;1.70;;;13.50;60.10;;;;;;20193;6928;311727;-80
2023/10/26 06:41:25;;;;;;;1.40;1.30;;;13.60;59.60;;;;;;20191;6928;281081;-79
2023/10/26 06:43:52;;;;;;;2.90;1.30;;;13.80;59.20;;;;;;20373;6928;118303;-80
2023/10/26 06:46:19;;;;;;;1.20;1.20;;;13.80;59.60;;;;;;20392;6928;120532;-80
2023/10/26 06:48:44;;;;;;;2.60;1.43;;;13.60;60.20;;;;;;20188;6928;310893;-79
2023/10/26 06:51:09;;;;;;;1.73;1.40;;;13.70;60.00;;;;;;20414;6928;122547;-80
2023/10/26 06:53:35;;;;;;;2.27;1.10;;;13.70;60.30;;;;;;20375;6928;117500;-80
2023/10/26 06:56:00;;;;;;;1.40;1.30;;;13.50;60.70;;;;;;20184;6928;312166;-80
2023/10/26 06:58:27;;;;;;;1.67;1.58;;;13.60;60.20;;;;;;20188;6928;290740;-80
2023/10/26 07:00:53;;;;;;;2.17;1.40;;;13.90;59.50;;;;;;20179;6928;281047;-80
2023/10/26 07:03:20;;;;;;;1.52;1.30;;;14.20;58.70;;;;;;20186;6928;282297;-79
2023/10/26 07:05:47;;;;;;;1.33;1.23;;;14.40;58.40;;;;;;20361;6928;123521;-80
2023/10/26 07:08:11;;;;;;;2.00;1.40;;;14.30;58.80;;;;;;20180;6928;320261;-79
2023/10/26 07:10:37;;;;;;;1.33;1.23;;;14.40;58.70;;;;;;20386;6928;118000;-79
2023/10/26 07:13:02;;;;;;;1.30;1.20;;;14.30;59.00;;;;;;20140;6928;313035;-79
2023/10/26 07:15:29;;;;;;;1.95;1.40;;;14.50;58.30;;;;;;20161;6926;311262;-82
2023/10/26 07:17:54;;;;;;;3.10;1.43;;;14.50;58.30;;;;;;20357;6928;117785;-79
2023/10/26 07:20:20;;;;;;;2.83;1.73;;;14.50;58.70;;;;;;20182;6928;281920;-79
2023/10/26 07:22:47;;;;;;;1.20;1.10;;;14.50;58.20;;;;;;20382;6928;117592;-79
2023/10/26 07:25:11;;;;;;;2.03;1.30;;;14.40;58.50;;;;;;20176;6928;348486;-79
2023/10/26 07:27:38;;;;;;;10.23;9.17;;;14.40;58.30;;;;;;20378;6928;118601;-79
2023/10/26 07:30:04;;;;;;;32.90;29.47;;;14.40;58.90;;;;;;20385;6928;118455;-79
2023/10/26 07:32:30;;;;;;;9.07;7.17;;;14.20;59.60;;;;;;20394;6928;118068;-79
2023/10/26 07:34:58;;;;;;;4.23;3.83;;;14.00;60.10;;;;;;20180;6928;305344;-79
2023/10/26 07:37:22;;;;;;;2.33;2.23;;;14.10;59.70;;;;;;20387;6928;117738;-79
2023/10/26 07:39:48;;;;;;;5.73;5.33;;;14.30;59.40;;;;;;20168;6928;309157;-79
2023/10/26 07:42:14;;;;;;;8.30;7.80;;;14.20;59.20;;;;;;20168;6928;312097;-79
2023/10/26 07:44:40;;;;;;;2.40;2.30;;;14.50;58.70;;;;;;20179;6928;282235;-81
2023/10/26 07:47:10;;;;;;;3.57;3.27;;;14.90;57.40;;;;;;20147;6941;280275;-80
2023/10/26 07:49:35;;;;;;;7.13;6.73;;;14.90;57.40;;;;;;20129;6943;312421;-79
2023/10/26 07:52:00;;;;;;;12.27;7.18;;;15.10;57.20;;;;;;20374;6928;118405;-79
2023/10/26 07:54:26;;;;;;;4.47;3.30;;;15.00;57.70;;;;;;20184;6928;349113;-79
2023/10/26 07:56:51;;;;;;;3.20;2.47;;;14.90;57.50;;;;;;20401;6928;118243;-79
2023/10/26 07:59:18;;;;;;;20.33;18.70;;;14.80;58.00;;;;;;20177;6928;312656;-79
2023/10/26 08:01:44;;;;;;;8.43;7.83;;;14.90;58.30;;;;;;20162;6928;320176;-80
2023/10/26 08:04:10;;;;;;;2.70;2.60;;;15.00;57.90;;;;;;20397;6928;118775;-79
2023/10/26 08:06:36;;;;;;;2.03;1.85;;;15.00;58.40;;;;;;20180;6928;349227;-80
2023/10/26 08:09:01;;;;;;;5.93;2.30;;;15.00;58.60;;;;;;20395;6928;118084;-79
2023/10/26 08:11:27;;;;;;;3.25;2.62;;;14.90;59.00;;;;;;20176;6928;350149;-79
2023/10/26 08:13:52;;;;;;;1.90;1.80;;;15.00;59.60;;;;;;20165;6928;282249;-80
2023/10/26 08:16:18;;;;;;;3.87;3.45;;;15.20;58.70;;;;;;20168;6928;311666;-79
2023/10/26 08:18:44;;;;;;;2.03;1.80;;;15.40;58.70;;;;;;20185;6928;297569;-78
2023/10/26 08:21:10;;;;;;;3.23;1.40;;;15.50;58.90;;;;;;20398;6928;117579;-77
2023/10/26 08:23:36;;;;;;;1.58;1.48;;;15.30;59.10;;;;;;20167;6928;312085;-78
2023/10/26 08:26:06;;;;;;;3.67;2.77;;;15.20;60.10;;;;;;20396;6926;118818;-77
2023/10/26 08:28:32;;;;;;;2.93;2.77;;;14.90;61.10;;;;;;20388;6927;117473;-77
2023/10/26 08:31:00;;;;;;;4.20;3.90;;;14.90;60.70;;;;;;20181;6928;318941;-77
2023/10/26 08:33:25;;;;;;;2.30;1.50;;;15.00;60.80;;;;;;20377;6928;118087;-77
2023/10/26 08:35:50;;;;;;;2.25;1.25;;;14.90;61.00;;;;;;20169;6928;287113;-77
2023/10/26 08:38:17;;;;;;;2.10;1.10;;;14.90;60.70;;;;;;20392;6928;120203;-77
2023/10/26 08:40:53;;;;;;;2.80;1.33;;;14.90;60.70;;;;;;20391;6928;117571;-77
2023/10/26 08:43:18;;;;;;;2.40;1.90;;;14.70;61.20;;;;;;20172;6928;290406;-77
2023/10/26 08:45:45;;;;;;;8.40;7.78;;;14.80;61.20;;;;;;20171;6928;311335;-77
2023/10/26 08:48:09;;;;;;;2.90;2.70;;;15.10;60.90;;;;;;20397;6928;122704;-76
2023/10/26 08:50:36;;;;;;;4.32;1.60;;;15.00;61.00;;;;;;20379;6928;117589;-76
2023/10/26 08:53:01;;;;;;;2.15;1.80;;;14.80;61.50;;;;;;20183;6928;319488;-77
2023/10/26 08:55:26;;;;;;;1.42;1.25;;;14.90;61.30;;;;;;20179;6928;318732;-78
2023/10/26 08:57:54;;;;;;;1.40;1.17;;;15.40;60.20;;;;;;20159;6928;307974;-76
2023/10/26 09:00:18;;;;;;;3.73;1.43;;;15.40;60.20;;;;;;20387;6928;117997;-76
2023/10/26 09:02:44;;;;;;;3.25;1.85;;;15.30;60.30;;;;;;20167;6928;311291;-76
2023/10/26 09:05:10;;;;;;;21.73;14.53;;;15.20;60.30;;;;;;20399;6928;117996;-77
2023/10/26 09:07:36;;;;;;;3.70;1.87;;;15.20;60.30;;;;;;20371;6928;123602;-78
2023/10/26 09:10:01;;;;;;;2.83;1.50;;;15.00;60.90;;;;;;20154;6938;311657;-77
2023/10/26 09:12:27;;;;;;;2.13;1.60;;;15.00;60.90;;;;;;20386;6928;117836;-77
2023/10/26 09:14:59;;;;;;;3.17;2.97;;;15.00;61.10;;;;;;20398;6928;117832;-77
2023/10/26 09:17:24;;;;;;;5.20;4.90;;;14.80;61.50;;;;;;20180;6928;312140;-78
2023/10/26 09:19:50;;;;;;;3.92;3.62;;;14.80;61.10;;;;;;20168;6928;320127;-76
2023/10/26 09:22:15;;;;;;;3.40;3.10;;;15.00;60.90;;;;;;20182;6928;281923;-72
2023/10/26 09:24:41;;;;;;;1.98;1.80;;;15.20;61.00;;;;;;20375;6928;117790;-71
2023/10/26 09:27:07;;;;;;;2.47;2.28;;;15.10;61.10;;;;;;20376;6928;118037;-70
2023/10/26 09:29:35;;;;;;;2.60;2.20;;;14.80;61.90;;;;;;20129;6928;281032;-71
2023/10/26 09:32:01;;;;;;;2.90;2.70;;;14.80;62.60;;;;;;20169;6928;341327;-71
2023/10/26 09:34:27;;;;;;;3.17;2.67;;;15.00;62.30;;;;;;20172;6928;311642;-71
2023/10/26 09:37:05;;;;;;;3.35;3.03;;;15.20;61.80;;;;;;20340;6940;117856;-73
2023/10/26 09:39:31;;;;;;;3.60;3.30;;;15.00;61.90;;;;;;20343;6942;121810;-73
2023/10/26 09:41:57;;;;;;;4.13;3.83;;;14.70;62.60;;;;;;20143;6931;285642;-74
2023/10/26 09:44:22;;;;;;;4.05;3.72;;;14.70;63.30;;;;;;20201;6923;310401;-74
2023/10/26 09:46:47;;;;;;;4.45;4.15;;;14.80;62.90;;;;;;20212;6923;289633;-73
2023/10/26 09:49:13;;;;;;;4.25;3.90;;;15.00;62.50;;;;;;20222;6923;340123;-72
2023/10/26 09:51:40;;;;;;;2.87;2.77;;;15.00;62.90;;;;;;20383;6923;118732;-73
2023/10/26 09:54:05;;;;;;;3.60;3.30;;;15.00;62.50;;;;;;20176;6931;319978;-75
2023/10/26 09:56:30;;;;;;;4.03;3.72;;;15.00;63.10;;;;;;20198;6923;280897;-72
2023/10/26 09:58:57;;;;;;;2.60;2.47;;;15.20;62.90;;;;;;20397;6923;118593;-72
2023/10/26 10:01:40;;;;;;;2.53;2.33;;;15.00;63.00;;;;;;20417;6923;124457;-72
2023/10/26 10:04:04;;;;;;;4.00;3.70;;;14.70;63.70;;;;;;20200;6923;309973;-73
2023/10/26 10:06:53;;;;;;;4.10;3.80;;;14.80;64.40;;;;;;20168;6923;355684;-73
2023/10/26 10:09:25;;;;;;;8.68;8.05;;;15.00;64.20;;;;;;20147;6923;310413;-72
2023/10/26 10:12:13;;;;;;;7.80;7.17;;;15.30;63.90;;;;;;20149;6931;290962;-72
2023/10/26 10:14:50;;;;;;;6.53;5.93;;;15.50;63.60;;;;;;20387;6923;117674;-72
2023/10/26 10:17:18;;;;;;;6.17;5.67;;;15.30;64.00;;;;;;20188;6923;318813;-73
2023/10/26 10:19:46;;;;;;;3.30;3.10;;;15.40;65.50;;;;;;20387;6923;118834;-73
2023/10/26 10:22:39;;;;;;;3.00;2.63;;;15.40;65.50;;;;;;20438;6923;117060;-74
2023/10/26 10:25:04;;;;;;;2.00;1.90;;;15.30;66.20;;;;;;20189;6923;348280;-73
2023/10/26 10:27:30;;;;;;;2.87;2.20;;;15.50;65.70;;;;;;20375;6931;117879;-73
2023/10/26 10:29:58;;;;;;;2.97;2.70;;;15.60;65.60;;;;;;20367;6931;117796;-73
2023/10/26 10:32:44;;;;;;;4.63;3.60;;;15.50;66.00;;;;;;20167;6923;280684;-73
2023/10/26 10:35:10;;;;;;;3.10;2.90;;;15.60;65.60;;;;;;20357;6931;118124;-73
2023/10/26 10:37:37;;;;;;;4.10;3.70;;;15.80;65.60;;;;;;20166;6923;334312;-73
2023/10/26 10:40:09;;;;;;;3.50;3.08;;;15.70;65.50;;;;;;20185;6923;347647;-73
2023/10/26 10:42:34;;;;;;;3.00;2.80;;;16.00;64.70;;;;;;20189;6923;348104;-73
2023/10/26 10:45:02;;;;;;;2.58;2.37;;;16.30;63.90;;;;;;20360;6923;117621;-73
2023/10/26 10:47:28;;;;;;;2.27;2.17;;;16.30;64.00;;;;;;20383;6923;117783;-73
2023/10/26 10:49:54;;;;;;;2.00;1.90;;;16.00;65.80;;;;;;20381;6921;121863;-73
2023/10/26 10:52:19;;;;;;;2.20;2.00;;;15.90;65.70;;;;;;20339;6923;118123;-73
2023/10/26 10:54:49;;;;;;;2.20;2.10;;;15.90;66.40;;;;;;20186;6923;309545;-73
2023/10/26 10:57:14;;;;;;;1.93;1.83;;;16.10;65.80;;;;;;20402;6923;117963;-73
2023/10/26 10:59:40;;;;;;;2.30;1.70;;;16.20;65.70;;;;;;20192;6923;298292;-73
2023/10/26 11:02:09;;;;;;;2.00;1.90;;;16.40;64.80;;;;;;20202;6923;305365;-73
2023/10/26 11:04:34;;;;;;;1.90;1.80;;;16.80;63.70;;;;;;20163;6931;311524;-73
2023/10/26 11:07:01;;;;;;;1.40;1.40;;;17.30;62.90;;;;;;20392;6928;117567;-73
2023/10/26 11:09:27;;;;;;;2.43;1.20;;;17.10;63.20;;;;;;20389;6928;117743;-73
2023/10/26 11:11:53;;;;;;;2.10;1.60;;;17.10;63.10;;;;;;20157;6928;289851;-74
2023/10/26 11:14:20;;;;;;;1.92;1.70;;;17.20;62.40;;;;;;20182;6928;311837;-73
2023/10/26 11:16:44;;;;;;;1.60;1.50;;;17.50;61.80;;;;;;20395;6928;118564;-73
2023/10/26 11:19:11;;;;;;;2.53;1.95;;;17.50;62.10;;;;;;20182;6928;328403;-74
2023/10/26 11:21:36;;;;;;;1.70;1.60;;;17.60;61.90;;;;;;20165;6928;312059;-75
2023/10/26 11:24:02;;;;;;;2.00;1.90;;;17.90;61.70;;;;;;20184;6928;281902;-74
2023/10/26 11:26:28;;;;;;;1.60;1.50;;;18.00;60.90;;;;;;20413;6928;118347;-73
2023/10/26 11:28:53;;;;;;;2.05;1.70;;;18.00;61.20;;;;;;20184;6928;311784;-75
2023/10/26 11:31:42;;;;;;;1.87;1.50;;;17.90;61.00;;;;;;20391;6928;118038;-75
2023/10/26 11:34:08;;;;;;;4.20;1.90;;;17.80;61.50;;;;;;20202;6928;297140;-73
2023/10/26 11:36:38;;;;;;;1.30;1.20;;;17.80;61.80;;;;;;20382;6928;117770;-73
2023/10/26 11:39:03;;;;;;;1.57;1.33;;;17.70;61.70;;;;;;20378;6928;122989;-73
2023/10/26 11:41:29;;;;;;;3.75;1.50;;;17.50;62.50;;;;;;20169;6928;290131;-73
2023/10/26 11:43:57;;;;;;;2.47;1.20;;;17.50;63.00;;;;;;20368;6928;117891;-74
2023/10/26 11:46:35;;;;;;;1.20;1.20;;;17.50;63.00;;;;;;20398;6928;67940;-82
2023/10/26 11:49:05;;;;;;;1.92;1.65;;;17.40;63.60;;;;;;20172;6928;344523;-76
2023/10/26 11:51:31;;;;;;;2.80;1.90;;;17.50;63.20;;;;;;20172;6928;282036;-77
2023/10/26 11:53:57;;;;;;;2.50;2.30;;;17.70;62.60;;;;;;20152;6928;320791;-77
2023/10/26 11:56:22;;;;;;;1.58;1.48;;;18.00;62.70;;;;;;20345;6928;117570;-77
2023/10/26 11:58:48;;;;;;;1.40;1.30;;;18.00;62.90;;;;;;20164;6928;281483;-77
2023/10/26 12:01:14;;;;;;;2.57;1.27;;;18.00;63.10;;;;;;20397;6926;118231;-77
2023/10/26 12:03:43;;;;;;;2.10;1.47;;;18.00;63.10;;;;;;20168;6928;311671;-76
2023/10/26 12:06:10;;;;;;;1.73;1.63;;;18.10;63.70;;;;;;20186;6928;289180;-76
2023/10/26 12:08:34;;;;;;;3.25;1.70;;;18.40;62.50;;;;;;20179;6928;319392;-76
2023/10/26 12:11:00;;;;;;;1.60;1.50;;;18.60;62.50;;;;;;20395;6928;122370;-77
2023/10/26 12:13:26;;;;;;;1.50;1.50;;;18.40;63.50;;;;;;20403;6928;118421;-77
2023/10/26 12:15:52;;;;;;;3.20;1.90;;;18.40;63.10;;;;;;20159;6928;311166;-77
2023/10/26 12:18:18;;;;;;;2.23;1.97;;;18.70;61.60;;;;;;20189;6928;281909;-77
2023/10/26 12:20:44;;;;;;;4.20;1.70;;;18.70;61.30;;;;;;20179;6928;350962;-77
2023/10/26 12:23:09;;;;;;;1.40;1.30;;;18.90;61.20;;;;;;20390;6928;122128;-77
2023/10/26 12:25:36;;;;;;;2.53;1.60;;;18.90;61.40;;;;;;20398;6928;118693;-79
2023/10/26 12:28:02;;;;;;;2.80;1.80;;;18.60;61.60;;;;;;20366;6928;122377;-79
2023/10/26 12:30:27;;;;;;;2.70;1.70;;;18.40;62.90;;;;;;20196;6928;311557;-80